Time;durP1;ratioP1;P1;durP2;ratioP2;P2;SDS_P1;SDS_P2;PMS_P1;PMS_P2;Temp;Humidity;BMP_temperature;BMP_pressure;BME280_temperature;BME280_humidity;BME280_pressure;Samples;Min_cycle;Max_cycle;Signal;HPM_P1;HPM_P2
2023/05/15 00:02:39;;;;;;;15.87;14.37;;;12.50;99.90;;;;;;2611589;54;20154;-68
2023/05/15 00:08:26;;;;;;;18.87;16.97;;;12.80;99.90;;;;;;2612922;54;20632;-70
2023/05/15 00:14:14;;;;;;;16.63;15.27;;;12.70;99.90;;;;;;2611524;54;20166;-69
2023/05/15 00:20:03;;;;;;;17.70;16.10;;;12.60;99.90;;;;;;2611469;54;20138;-69
2023/05/15 00:25:51;;;;;;;16.53;15.03;;;12.30;99.90;;;;;;2608570;54;20378;-69
2023/05/15 00:31:39;;;;;;;17.23;15.53;;;12.20;99.90;;;;;;2612687;54;20130;-68
2023/05/15 00:41:33;;;;;;;20.30;18.20;;;12.30;99.90;;;;;;2611038;54;20403;-70
2023/05/15 00:47:22;;;;;;;28.37;22.07;;;12.30;99.90;;;;;;2610724;54;20405;-71
2023/05/15 00:53:10;;;;;;;23.63;21.13;;;12.30;99.90;;;;;;2614135;39;20737;-69
2023/05/15 00:59:01;;;;;;;23.47;20.90;;;12.20;99.90;;;;;;2611029;54;20407;-69
2023/05/15 01:04:49;;;;;;;24.97;22.30;;;12.20;99.90;;;;;;2612258;54;20358;-74
2023/05/15 01:10:38;;;;;;;25.93;23.13;;;12.00;99.90;;;;;;2613214;54;20371;-74
2023/05/15 01:16:26;;;;;;;29.17;20.77;;;12.00;99.90;;;;;;2613507;54;20889;-74
2023/05/15 01:22:23;;;;;;;26.30;21.50;;;11.90;99.90;;;;;;2614389;54;20201;-75
2023/05/15 01:35:32;;;;;;;26.33;23.53;;;11.90;99.90;;;;;;2611227;54;20371;-74
2023/05/15 01:41:28;;;;;;;38.37;24.50;;;12.00;99.90;;;;;;2612926;54;20421;-73
2023/05/15 01:50:18;;;;;;;29.70;25.60;;;11.60;99.90;;;;;;2612391;54;20391;-74
2023/05/15 01:56:08;;;;;;;31.50;26.50;;;11.60;99.90;;;;;;2613695;39;20783;-74
2023/05/15 02:01:57;;;;;;;35.07;26.43;;;11.50;99.90;;;;;;2615125;54;21040;-74
2023/05/15 02:07:45;;;;;;;32.30;26.93;;;11.40;99.90;;;;;;2613269;31;20806;-74
2023/05/15 02:13:34;;;;;;;34.67;27.30;;;11.50;99.90;;;;;;2614284;54;20367;-75
2023/05/15 02:19:22;;;;;;;38.00;28.40;;;11.40;99.90;;;;;;2614080;54;20366;-74
2023/05/15 02:25:10;;;;;;;34.73;27.57;;;11.70;99.90;;;;;;2611596;54;20156;-74
2023/05/15 02:31:04;;;;;;;45.07;29.40;;;11.80;99.90;;;;;;2612901;54;20238;-74
2023/05/15 02:36:53;;;;;;;63.43;38.10;;;12.10;99.90;;;;;;2613316;54;20367;-74
2023/05/15 02:46:06;;;;;;;92.87;47.20;;;12.60;99.90;;;;;;2613697;54;20437;-75
2023/05/15 02:51:53;;;;;;;87.73;44.90;;;12.80;99.90;;;;;;2614047;31;20852;-73
2023/05/15 02:57:41;;;;;;;93.03;45.47;;;12.80;99.90;;;;;;2614030;54;20134;-72
2023/05/15 03:03:29;;;;;;;94.13;53.27;;;12.70;99.90;;;;;;2613929;39;20531;-68
2023/05/15 03:09:17;;;;;;;117.07;53.07;;;12.90;99.90;;;;;;2613674;54;20153;-69
2023/05/15 03:15:06;;;;;;;113.27;55.83;;;12.80;99.90;;;;;;2613029;54;20145;-69
2023/05/15 03:20:54;;;;;;;119.27;60.90;;;12.90;99.90;;;;;;2610821;54;20370;-70
2023/05/15 03:26:43;;;;;;;114.83;59.93;;;12.90;99.90;;;;;;2610649;39;20770;-70
2023/05/15 03:32:31;;;;;;;124.73;60.17;;;13.00;99.90;;;;;;2611075;54;20995;-69
2023/05/15 03:38:19;;;;;;;100.47;54.77;;;13.00;99.90;;;;;;2611014;54;20138;-70
2023/05/15 03:44:18;;;;;;;112.23;56.40;;;13.10;99.90;;;;;;2609691;47;20134;-69
2023/05/15 03:50:06;;;;;;;112.40;56.20;;;12.90;99.90;;;;;;2608277;54;20147;-70
2023/05/15 03:55:53;;;;;;;123.97;62.70;;;12.90;99.90;;;;;;2611304;54;20492;-69
2023/05/15 04:01:41;;;;;;;128.93;62.40;;;12.80;99.90;;;;;;2610944;54;20165;-69
2023/05/15 04:07:28;;;;;;;122.10;59.50;;;12.80;99.90;;;;;;2612088;54;20403;-69
2023/05/15 04:13:16;;;;;;;99.80;56.00;;;12.70;99.90;;;;;;2611487;54;20287;-70
2023/05/15 04:19:03;;;;;;;104.97;57.67;;;12.60;99.90;;;;;;2612024;54;20419;-69
2023/05/15 04:24:51;;;;;;;107.73;58.30;;;12.70;99.90;;;;;;2613421;39;21441;-69
2023/05/15 04:30:38;;;;;;;125.80;58.80;;;12.60;99.90;;;;;;2612052;54;20162;-69
2023/05/15 04:36:27;;;;;;;119.40;56.83;;;12.60;99.90;;;;;;2610670;54;20250;-69
2023/05/15 04:46:07;;;;;;;94.87;56.03;;;12.50;99.90;;;;;;2611023;54;20375;-70
2023/05/15 04:51:55;;;;;;;94.07;58.87;;;12.40;99.90;;;;;;2611924;54;20407;-69
2023/05/15 04:57:45;;;;;;;84.57;50.47;;;12.40;99.90;;;;;;2609928;54;20263;-70
2023/05/15 05:03:32;;;;;;;99.33;54.97;;;12.40;99.90;;;;;;2612966;54;20530;-70
2023/05/15 05:09:20;;;;;;;100.80;55.10;;;12.40;99.90;;;;;;2611178;54;20166;-70
2023/05/15 05:15:09;;;;;;;83.53;51.93;;;12.50;99.90;;;;;;2610590;54;20174;-68
2023/05/15 05:21:00;;;;;;;72.13;51.07;;;12.40;99.90;;;;;;2612872;54;20435;-71
2023/05/15 05:26:48;;;;;;;81.67;49.00;;;12.60;99.90;;;;;;2609052;54;20423;-70
2023/05/15 05:32:35;;;;;;;60.83;38.80;;;12.80;99.90;;;;;;2611943;54;20499;-68
2023/05/15 05:38:25;;;;;;;60.73;40.57;;;12.60;99.90;;;;;;2612879;54;20169;-69
2023/05/15 05:41:35;;;;;;;55.00;40.47;;;12.70;99.90;;;;;;2611948;54;20482;-69
2023/05/15 05:44:01;;;;;;;53.20;37.73;;;12.70;99.90;;;;;;2613060;54;20422;-68
2023/05/15 05:49:48;;;;;;;54.70;38.10;;;12.70;99.90;;;;;;2612130;54;20165;-69
2023/05/15 05:55:37;;;;;;;58.83;41.77;;;12.90;99.90;;;;;;2611334;54;20178;-68
2023/05/15 06:01:25;;;;;;;58.83;41.20;;;12.90;99.90;;;;;;2613480;54;20483;-69
2023/05/15 06:07:13;;;;;;;81.47;46.37;;;13.00;99.90;;;;;;2611143;54;20414;-69
2023/05/15 06:13:01;;;;;;;89.10;50.53;;;12.80;99.90;;;;;;2610828;54;20191;-69
2023/05/15 06:18:49;;;;;;;95.53;57.80;;;12.90;99.90;;;;;;2607378;54;20170;-69
2023/05/15 06:24:37;;;;;;;109.87;58.27;;;13.10;99.90;;;;;;2611780;54;20342;-68
2023/05/15 06:30:25;;;;;;;95.23;53.27;;;12.80;99.90;;;;;;2611406;54;20170;-68
2023/05/15 06:36:12;;;;;;;86.40;55.57;;;13.20;99.90;;;;;;2610705;54;20138;-69
2023/05/15 06:46:06;;;;;;;91.20;54.07;;;13.00;99.90;;;;;;2609426;39;20811;-69
2023/05/15 06:51:54;;;;;;;77.23;51.37;;;13.70;99.90;;;;;;2609806;54;20371;-69
2023/05/15 06:57:41;;;;;;;75.43;49.90;;;13.80;99.90;;;;;;2610557;54;20153;-68
2023/05/15 07:03:29;;;;;;;72.80;47.87;;;13.60;99.90;;;;;;2613461;54;20925;-69
2023/05/15 07:09:17;;;;;;;65.13;45.47;;;14.00;99.90;;;;;;2613518;54;20455;-68
2023/05/15 07:15:05;;;;;;;57.80;39.80;;;14.30;99.90;;;;;;2614055;54;20146;-68
2023/05/15 07:20:52;;;;;;;49.50;35.73;;;13.50;99.90;;;;;;2613529;54;20407;-69
2023/05/15 07:26:40;;;;;;;57.80;38.87;;;14.50;99.90;;;;;;2612058;54;20153;-69
2023/05/15 07:32:29;;;;;;;41.30;34.40;;;14.40;99.90;;;;;;2613515;54;20218;-70
2023/05/15 07:38:17;;;;;;;41.90;34.33;;;14.40;99.90;;;;;;2613964;31;20865;-70
2023/05/15 07:41:32;;;;;;;34.13;30.53;;;14.60;99.90;;;;;;2610977;54;20408;-74
2023/05/15 07:43:58;;;;;;;35.37;31.87;;;14.90;99.90;;;;;;2611483;54;20159;-76
2023/05/15 07:49:45;;;;;;;34.50;30.93;;;16.80;99.90;;;;;;2612326;54;20210;-76
2023/05/15 07:55:33;;;;;;;34.07;30.87;;;16.20;99.90;;;;;;2612662;54;20123;-75
2023/05/15 08:01:21;;;;;;;31.10;28.50;;;16.50;99.90;;;;;;2609097;54;20126;-75
2023/05/15 08:07:09;;;;;;;34.40;31.17;;;16.90;99.90;;;;;;2613793;54;20170;-75
2023/05/15 08:12:57;;;;;;;28.30;25.90;;;16.90;99.90;;;;;;2613161;39;20480;-75
2023/05/15 08:18:44;;;;;;;26.57;24.30;;;16.60;99.90;;;;;;2610075;31;20584;-75
2023/05/15 08:24:32;;;;;;;29.47;26.77;;;16.40;99.90;;;;;;2613581;54;20137;-75
2023/05/15 08:30:20;;;;;;;28.27;25.77;;;16.60;99.90;;;;;;2611856;54;20166;-75
2023/05/15 08:36:07;;;;;;;28.60;26.27;;;17.80;99.90;;;;;;2612790;54;20270;-76
2023/05/15 08:46:07;;;;;;;28.37;25.63;;;18.50;99.90;;;;;;2611756;54;20414;-76
2023/05/15 08:51:55;;;;;;;27.03;24.70;;;18.60;99.90;;;;;;2610128;54;20396;-76
2023/05/15 08:57:43;;;;;;;28.23;25.43;;;18.20;99.90;;;;;;2611615;54;20779;-75
2023/05/15 09:03:31;;;;;;;31.17;28.53;;;18.00;99.90;;;;;;2611693;54;20360;-75
2023/05/15 09:09:19;;;;;;;27.13;25.03;;;18.80;95.10;;;;;;2613718;54;20150;-76
2023/05/15 09:15:11;;;;;;;29.60;27.20;;;19.00;91.90;;;;;;2612783;54;20427;-75
2023/05/15 09:21:24;;;;;;;28.23;26.07;;;19.10;82.20;;;;;;2613793;54;20459;-75
2023/05/15 09:27:13;;;;;;;29.53;27.33;;;18.70;89.00;;;;;;2613078;54;20399;-75
2023/05/15 09:33:02;;;;;;;30.50;27.90;;;19.50;75.20;;;;;;2613279;54;20387;-75
2023/05/15 09:38:57;;;;;;;28.60;26.30;;;18.40;90.20;;;;;;2610933;54;20391;-76
2023/05/15 09:44:26;;;;;;;26.77;24.77;;;19.80;70.50;;;;;;2611240;54;20389;-75
2023/05/15 09:47:12;;;;;;;25.57;23.40;;;19.90;62.60;;;;;;2610412;47;20439;-75
2023/05/15 09:49:38;;;;;;;26.50;24.20;;;20.10;63.70;;;;;;2610990;39;20884;-75
2023/05/15 09:55:26;;;;;;;28.13;25.83;;;19.80;61.40;;;;;;2612807;54;20375;-75
2023/05/15 10:01:19;;;;;;;26.87;24.67;;;18.30;59.70;;;;;;2608982;54;20146;-75
2023/05/15 10:07:08;;;;;;;25.13;23.10;;;20.10;54.10;;;;;;2611035;39;20978;-75
2023/05/15 10:13:00;;;;;;;25.10;23.40;;;20.10;42.10;;;;;;2614348;54;20398;-75
2023/05/15 10:18:50;;;;;;;25.67;23.57;;;20.90;37.90;;;;;;2613817;54;20383;-74
2023/05/15 10:24:42;;;;;;;24.67;22.60;;;20.00;33.10;;;;;;2614546;54;20390;-74
2023/05/15 10:30:31;;;;;;;20.67;19.47;;;20.70;28.10;;;;;;2613681;54;20374;-75
2023/05/15 10:36:19;;;;;;;22.60;21.00;;;21.30;27.00;;;;;;2614533;54;20359;-75
2023/05/15 10:46:06;;;;;;;23.13;21.30;;;21.30;21.10;;;;;;2614540;54;20394;-75
2023/05/15 10:51:54;;;;;;;21.83;20.07;;;21.40;21.80;;;;;;2614661;54;21422;-75
2023/05/15 10:57:45;;;;;;;20.77;19.13;;;21.20;20.00;;;;;;2613319;54;20491;-74
2023/05/15 11:03:37;;;;;;;21.13;19.73;;;21.30;19.60;;;;;;2612612;54;20426;-73
2023/05/15 11:15:45;;;;;;;22.77;21.10;;;21.70;17.00;;;;;;2612608;54;20402;-74
2023/05/15 11:21:33;;;;;;;23.87;22.33;;;20.10;21.60;;;;;;2612616;46;20414;-75
2023/05/15 11:33:37;;;;;;;25.33;23.17;;;20.80;22.70;;;;;;2612272;54;20387;-75
2023/05/15 11:39:25;;;;;;;23.53;21.83;;;21.40;23.00;;;;;;2611940;39;20833;-75
2023/05/15 11:48:43;;;;;;;22.17;20.87;;;22.50;18.70;;;;;;2611891;54;20411;-75
2023/05/15 11:54:31;;;;;;;23.40;21.90;;;21.80;18.20;;;;;;2610212;54;20378;-75
2023/05/15 12:00:20;;;;;;;20.97;19.67;;;22.60;13.50;;;;;;2610132;54;20123;-75
2023/05/15 12:06:09;;;;;;;19.70;18.60;;;22.80;11.10;;;;;;2609927;54;20371;-75
2023/05/15 12:11:57;;;;;;;22.97;21.60;;;21.90;8.30;;;;;;2610707;54;20395;-75
2023/05/15 12:17:45;;;;;;;20.07;19.00;;;23.10;10.00;;;;;;2611711;54;20171;-75
2023/05/15 12:23:32;;;;;;;17.83;16.90;;;22.80;9.90;;;;;;2608890;54;20415;-75
2023/05/15 12:29:20;;;;;;;19.33;18.40;;;22.10;5.40;;;;;;2608884;54;20215;-75
2023/05/15 12:35:10;;;;;;;19.90;18.70;;;22.50;8.50;;;;;;2608062;54;20183;-74
2023/05/15 12:40:58;;;;;;;18.77;17.77;;;21.70;6.70;;;;;;2613165;54;20402;-75
2023/05/15 12:44:02;;;;;;;18.67;17.57;;;21.10;6.60;;;;;;2613323;54;20436;-74
2023/05/15 12:46:31;;;;;;;19.93;18.93;;;21.40;8.80;;;;;;2613434;54;20162;-75
2023/05/15 12:52:19;;;;;;;21.73;20.33;;;20.70;12.60;;;;;;2613873;46;20860;-75
2023/05/15 12:58:09;;;;;;;21.47;20.00;;;21.60;9.00;;;;;;2613629;54;20600;-75
2023/05/15 13:03:57;;;;;;;22.03;20.93;;;22.10;9.00;;;;;;2612476;54;20383;-75
2023/05/15 13:22:41;;;;;;;19.57;18.57;;;22.90;1.00;;;;;;2612205;39;20767;-74
2023/05/15 13:28:29;;;;;;;19.53;18.53;;;22.20;1.90;;;;;;2609403;54;20426;-74
2023/05/15 13:34:17;;;;;;;23.00;21.40;;;21.10;5.80;;;;;;2608709;54;20138;-74
2023/05/15 13:40:10;;;;;;;22.80;21.40;;;21.10;8.30;;;;;;2608250;54;20142;-74
2023/05/15 13:49:20;;;;;;;22.63;21.07;;;22.10;5.00;;;;;;2613047;39;20828;-75
2023/05/15 13:55:09;;;;;;;22.00;20.63;;;23.10;6.70;;;;;;2613232;54;20174;-75
2023/05/15 14:00:57;;;;;;;24.80;23.10;;;21.70;8.20;;;;;;2610266;54;20375;-74
2023/05/15 14:06:45;;;;;;;26.13;24.20;;;22.80;9.10;;;;;;2610475;54;20138;-75
2023/05/15 14:12:32;;;;;;;25.43;23.93;;;20.90;12.20;;;;;;2610798;54;20141;-75
2023/05/15 14:18:20;;;;;;;26.10;24.50;;;21.00;13.20;;;;;;2611167;54;20150;-75
2023/05/15 14:24:08;;;;;;;25.00;23.60;;;22.10;10.60;;;;;;2611951;54;20129;-74
2023/05/15 14:29:56;;;;;;;23.83;22.10;;;20.90;9.20;;;;;;2613514;54;20134;-75
2023/05/15 14:35:43;;;;;;;24.30;22.67;;;20.90;11.30;;;;;;2611003;54;20649;-75
2023/05/15 14:41:31;;;;;;;29.13;26.73;;;20.60;17.40;;;;;;2609027;54;20130;-74
2023/05/15 14:44:50;;;;;;;29.33;27.23;;;20.80;19.90;;;;;;2610583;54;20392;-75
2023/05/15 14:47:16;;;;;;;28.87;26.77;;;20.80;22.40;;;;;;2609061;54;20396;-74
2023/05/15 14:53:04;;;;;;;26.10;23.70;;;21.30;19.60;;;;;;2614099;54;20131;-75
2023/05/15 14:58:52;;;;;;;27.40;25.40;;;22.10;15.90;;;;;;2614648;39;20513;-74
2023/05/15 15:04:40;;;;;;;25.10;23.40;;;21.20;17.70;;;;;;2614082;39;20809;-75
2023/05/15 15:10:27;;;;;;;23.00;21.40;;;20.40;17.60;;;;;;2614538;54;20247;-74
2023/05/15 15:16:15;;;;;;;24.07;22.40;;;19.80;16.30;;;;;;2613753;54;20146;-74
2023/05/15 15:22:03;;;;;;;21.73;20.10;;;19.10;19.30;;;;;;2614480;54;20139;-75
2023/05/15 15:27:51;;;;;;;24.17;22.60;;;19.00;21.40;;;;;;2613017;54;20127;-74
2023/05/15 15:33:38;;;;;;;24.40;22.50;;;19.70;25.40;;;;;;2614683;54;20222;-74
2023/05/15 15:39:26;;;;;;;25.33;23.50;;;19.30;29.20;;;;;;2613793;54;20162;-74
2023/05/15 15:49:23;;;;;;;25.27;23.57;;;19.50;28.40;;;;;;2614595;54;20423;-74
2023/05/15 15:55:10;;;;;;;26.77;24.73;;;19.90;27.60;;;;;;2613266;54;20557;-74
2023/05/15 16:00:58;;;;;;;26.40;24.23;;;19.50;29.30;;;;;;2613871;54;20182;-74
2023/05/15 16:06:46;;;;;;;28.90;26.53;;;19.90;32.60;;;;;;2613312;54;20399;-75
2023/05/15 16:12:34;;;;;;;28.60;26.27;;;19.00;36.60;;;;;;2613951;54;20123;-74
2023/05/15 16:18:22;;;;;;;26.30;24.40;;;19.30;39.90;;;;;;2613247;54;20154;-74
2023/05/15 16:24:09;;;;;;;26.17;24.27;;;19.30;42.40;;;;;;2613223;54;20134;-75
2023/05/15 16:29:57;;;;;;;25.63;23.70;;;19.00;42.70;;;;;;2614331;54;20162;-75
2023/05/15 16:35:46;;;;;;;22.13;20.63;;;18.80;40.40;;;;;;2615307;31;20591;-74
2023/05/15 16:41:33;;;;;;;21.70;20.00;;;18.70;38.60;;;;;;2613920;54;20411;-74
2023/05/15 16:47:35;;;;;;;36.87;34.03;;;18.20;34.40;;;;;;2611078;54;20182;-73
2023/05/15 16:53:23;;;;;;;24.60;22.90;;;18.40;37.70;;;;;;2610593;54;20428;-74
2023/05/15 16:59:11;;;;;;;24.47;22.67;;;18.30;42.90;;;;;;2609379;54;20146;-74
2023/05/15 17:04:57;;;;;;;23.27;21.67;;;18.30;52.00;;;;;;2612114;54;20395;-73
2023/05/15 17:10:45;;;;;;;23.80;22.30;;;17.80;50.50;;;;;;2612377;39;20564;-74
2023/05/15 17:16:32;;;;;;;25.07;23.37;;;17.70;56.60;;;;;;2612064;54;20130;-74
2023/05/15 17:22:20;;;;;;;24.00;22.20;;;17.40;69.40;;;;;;2609550;54;20147;-74
2023/05/15 17:28:08;;;;;;;28.33;25.93;;;17.20;82.80;;;;;;2612687;54;20399;-74
2023/05/15 17:33:55;;;;;;;20.53;18.60;;;17.10;94.80;;;;;;2613262;54;20146;-74
2023/05/15 17:39:43;;;;;;;15.67;14.03;;;16.70;99.90;;;;;;2612771;46;20179;-75
2023/05/15 17:55:44;;;;;;;15.20;13.53;;;15.70;99.90;;;;;;2612243;54;20411;-75
2023/05/15 18:01:31;;;;;;;13.63;12.33;;;15.60;99.90;;;;;;2611015;54;20246;-74
2023/05/15 18:07:18;;;;;;;20.30;18.17;;;15.50;99.90;;;;;;2611959;54;20162;-73
2023/05/15 18:13:06;;;;;;;19.30;17.13;;;15.20;99.90;;;;;;2611439;54;21439;-73
2023/05/15 18:18:53;;;;;;;21.67;16.87;;;15.00;99.90;;;;;;2609438;54;20529;-72
2023/05/15 18:24:40;;;;;;;23.33;19.23;;;14.90;99.90;;;;;;2609851;54;20126;-73
2023/05/15 18:30:28;;;;;;;21.67;19.47;;;14.70;99.90;;;;;;2612590;54;20234;-73
2023/05/15 18:36:17;;;;;;;22.80;19.50;;;14.60;99.90;;;;;;2612124;54;20383;-73
2023/05/15 18:42:05;;;;;;;19.30;17.20;;;14.60;99.90;;;;;;2612249;54;20371;-72
2023/05/15 18:44:51;;;;;;;19.90;17.80;;;14.50;99.90;;;;;;2611044;54;20404;-73
2023/05/15 18:47:17;;;;;;;23.30;20.90;;;14.50;99.90;;;;;;2611845;54;20523;-73
2023/05/15 18:53:04;;;;;;;21.10;18.90;;;14.40;99.90;;;;;;2612620;54;20398;-74
2023/05/15 18:58:53;;;;;;;19.70;17.60;;;14.30;99.90;;;;;;2610165;54;22802;-74
2023/05/15 19:04:40;;;;;;;19.83;15.97;;;14.10;99.90;;;;;;2611519;46;20375;-72
2023/05/15 19:10:29;;;;;;;16.50;14.80;;;14.00;99.90;;;;;;2613467;54;20154;-74
2023/05/15 19:16:17;;;;;;;19.30;15.90;;;14.00;99.90;;;;;;2612834;54;20403;-72
2023/05/15 19:22:04;;;;;;;17.20;15.20;;;13.90;99.90;;;;;;2614013;54;20126;-73
2023/05/15 19:27:54;;;;;;;16.20;14.20;;;13.80;99.90;;;;;;2611422;54;20154;-73
2023/05/15 19:33:42;;;;;;;17.73;13.83;;;13.80;99.90;;;;;;2611030;54;20368;-74
2023/05/15 19:39:30;;;;;;;15.73;13.03;;;13.70;99.90;;;;;;2612925;54;20691;-73
2023/05/15 19:49:20;;;;;;;16.20;11.50;;;13.70;99.90;;;;;;2611929;54;20378;-72
2023/05/15 19:55:08;;;;;;;13.00;11.60;;;13.70;99.90;;;;;;2611553;54;20399;-72
2023/05/15 20:00:56;;;;;;;11.17;10.07;;;13.70;99.90;;;;;;2610293;54;20391;-72
2023/05/15 20:06:44;;;;;;;12.70;11.50;;;13.70;99.90;;;;;;2608202;54;20426;-73
2023/05/15 20:12:31;;;;;;;10.00;9.10;;;13.70;99.90;;;;;;2612717;54;20150;-72
2023/05/15 20:18:20;;;;;;;12.53;10.30;;;13.60;99.90;;;;;;2614252;39;20631;-72
2023/05/15 20:24:09;;;;;;;16.53;10.40;;;13.50;99.90;;;;;;2613720;54;20933;-73
2023/05/15 20:29:56;;;;;;;11.77;10.67;;;13.50;99.90;;;;;;2612230;54;21324;-72
2023/05/15 20:35:44;;;;;;;13.13;11.13;;;13.50;99.90;;;;;;2612391;54;20130;-73
2023/05/15 20:41:33;;;;;;;11.30;10.40;;;13.60;99.90;;;;;;2611573;54;20125;-72
2023/05/15 20:44:50;;;;;;;11.77;10.77;;;13.60;99.90;;;;;;2605756;54;20384;-73
2023/05/15 20:47:16;;;;;;;9.37;8.77;;;13.60;99.90;;;;;;2612676;39;21122;-73
2023/05/15 20:53:04;;;;;;;10.83;9.93;;;13.50;99.90;;;;;;2613276;54;20149;-73
2023/05/15 20:58:52;;;;;;;10.03;9.23;;;13.60;99.90;;;;;;2613717;54;20135;-72
2023/05/15 21:04:40;;;;;;;10.80;9.80;;;13.50;99.90;;;;;;2610645;54;20134;-72
2023/05/15 21:10:28;;;;;;;9.87;8.97;;;13.40;99.90;;;;;;2611161;54;20130;-72
2023/05/15 21:16:15;;;;;;;9.33;8.63;;;13.40;99.90;;;;;;2611374;31;20586;-73
2023/05/15 21:22:04;;;;;;;10.00;9.20;;;13.30;99.90;;;;;;2610271;54;20150;-72
2023/05/15 21:27:52;;;;;;;10.47;9.67;;;13.30;99.90;;;;;;2610227;54;20506;-73
2023/05/15 21:33:40;;;;;;;11.27;10.23;;;13.40;99.90;;;;;;2610322;54;20696;-73
2023/05/15 21:39:27;;;;;;;15.87;10.37;;;13.30;99.90;;;;;;2610924;31;20627;-72
2023/05/15 21:49:18;;;;;;;11.30;9.90;;;13.20;99.90;;;;;;2613641;54;20395;-73
2023/05/15 21:55:07;;;;;;;14.33;9.87;;;13.20;99.90;;;;;;2614153;54;20483;-72
2023/05/15 21:58:10;;;;;;;11.20;10.20;;;13.20;99.90;;;;;;2614033;39;20984;-72
2023/05/15 22:00:38;;;;;;;11.20;9.90;;;13.20;99.90;;;;;;2612685;54;20514;-72
2023/05/15 22:06:26;;;;;;;10.87;9.97;;;13.10;99.90;;;;;;2613360;54;20377;-73
2023/05/15 22:12:13;;;;;;;10.10;9.30;;;13.10;99.90;;;;;;2614402;54;20166;-73
2023/05/15 22:18:02;;;;;;;10.13;9.20;;;13.10;99.90;;;;;;2611984;54;20146;-72
2023/05/15 22:23:50;;;;;;;11.13;9.13;;;13.00;99.90;;;;;;2610166;54;20395;-72
2023/05/15 22:29:37;;;;;;;8.40;7.60;;;12.80;99.90;;;;;;2611498;54;20147;-72
2023/05/15 22:35:26;;;;;;;9.13;8.23;;;12.60;99.90;;;;;;2609846;54;20130;-73
2023/05/15 22:41:14;;;;;;;8.00;7.20;;;12.30;99.90;;;;;;2611144;54;20363;-74
2023/05/15 22:47:02;;;;;;;13.30;10.20;;;12.00;99.90;;;;;;2611903;54;20837;-73
2023/05/15 22:52:50;;;;;;;18.03;11.30;;;11.80;99.90;;;;;;2614438;39;20525;-73
2023/05/15 22:58:37;;;;;;;14.20;11.30;;;11.70;99.90;;;;;;2614484;54;20134;-73
2023/05/15 23:04:25;;;;;;;16.83;11.17;;;11.60;99.90;;;;;;2610724;39;20604;-74
2023/05/15 23:10:13;;;;;;;17.27;12.47;;;11.50;99.90;;;;;;2610740;39;20517;-73
2023/05/15 23:16:00;;;;;;;20.97;15.60;;;11.40;99.90;;;;;;2610094;54;20134;-73
2023/05/15 23:21:48;;;;;;;25.13;16.07;;;11.20;99.90;;;;;;2611501;39;21926;-73
2023/05/15 23:27:36;;;;;;;20.53;15.00;;;11.10;99.90;;;;;;2610651;54;20130;-72
2023/05/15 23:33:23;;;;;;;23.17;16.10;;;11.00;99.90;;;;;;2610169;54;20131;-73
2023/05/15 23:49:24;;;;;;;16.97;13.10;;;10.90;99.90;;;;;;2612158;54;20385;-72
2023/05/15 23:55:11;;;;;;;20.63;13.87;;;10.90;99.90;;;;;;2614474;54;20502;-72
